createdAt,value
2018-02-22T00:00:01.547Z,27.40
2018-02-22T00:01:01.537Z,27.90
2018-02-22T00:02:01.520Z,27.30
2018-02-22T00:03:01.495Z,27.90
2018-02-22T00:04:01.479Z,28.50
2018-02-22T00:05:01.461Z,26.60
2018-02-22T00:06:01.448Z,27.60
2018-02-22T00:07:01.430Z,27.20
2018-02-22T00:08:01.405Z,27.50
2018-02-22T00:09:01.390Z,28.30
2018-02-22T00:10:01.379Z,27.60
2018-02-22T00:11:01.352Z,26.70
2018-02-22T00:12:01.336Z,27.70
2018-02-22T00:13:01.317Z,28.80
2018-02-22T00:14:01.299Z,26.70
2018-02-22T00:15:01.282Z,27.10
2018-02-22T00:16:01.269Z,27.90
2018-02-22T00:17:01.252Z,26.50
2018-02-22T00:18:01.227Z,28.50
2018-02-22T00:19:01.208Z,27.10
2018-02-22T00:20:01.193Z,26.50
2018-02-22T00:21:01.183Z,26.50
2018-02-22T00:22:01.157Z,26.90
2018-02-22T00:23:01.143Z,27.20
2018-02-22T00:24:01.120Z,28.20
2018-02-22T00:25:01.102Z,27.90
2018-02-22T00:26:01.086Z,27.90
2018-02-22T00:27:01.068Z,27.40
2018-02-22T00:28:01.047Z,26.70
2018-02-22T00:29:01.030Z,26.50
2018-02-22T00:30:01.016Z,28.10
2018-02-22T00:31:00.993Z,26.70
2018-02-22T00:32:01.014Z,27.20
2018-02-22T00:33:00.964Z,28.80
2018-02-22T00:34:00.946Z,27.30
2018-02-22T00:35:00.922Z,27.90
2018-02-22T00:36:00.903Z,28.10
2018-02-22T00:37:00.893Z,27.70
2018-02-22T00:38:00.870Z,28.70
2018-02-22T00:39:00.852Z,26.20
2018-02-22T00:40:00.832Z,27.60
2018-02-22T00:41:00.816Z,27.90
2018-02-22T00:42:00.803Z,28.00
2018-02-22T00:43:00.778Z,27.40
2018-02-22T00:44:00.760Z,26.90
2018-02-22T00:45:00.748Z,28.10
2018-02-22T00:46:00.723Z,27.20
2018-02-22T00:47:00.707Z,29.00
2018-02-22T00:48:00.688Z,27.70
2018-02-22T00:49:00.671Z,28.20
2018-02-22T00:50:00.653Z,26.90
2018-02-22T00:51:00.639Z,27.90
2018-02-22T00:52:00.625Z,27.30
2018-02-22T00:53:00.602Z,27.50
2018-02-22T00:54:00.581Z,28.20
2018-02-22T00:55:00.566Z,27.10
2018-02-22T00:56:00.549Z,27.50
2018-02-22T00:57:00.526Z,28.10
2018-02-22T00:58:00.509Z,27.90
2018-02-22T00:59:00.493Z,27.90
2018-02-22T01:00:00.472Z,27.80
2018-02-22T01:01:00.455Z,27.80
2018-02-22T01:02:00.435Z,28.80
2018-02-22T01:03:00.423Z,28.40
2018-02-22T01:04:00.400Z,28.10
2018-02-22T01:05:00.384Z,27.90
2018-02-22T01:06:00.365Z,27.20
2018-02-22T01:07:00.347Z,25.80
2018-02-22T01:08:00.331Z,27.50
2018-02-22T01:09:00.314Z,26.40
2018-02-22T01:10:00.295Z,26.80
2018-02-22T01:11:00.275Z,27.20
2018-02-22T01:12:00.260Z,27.30
2018-02-22T01:13:00.241Z,28.10
2018-02-22T01:14:00.221Z,27.60
2018-02-22T01:15:00.206Z,27.70
2018-02-22T01:16:00.187Z,25.60
2018-02-22T01:17:00.168Z,26.80
2018-02-22T01:18:00.151Z,27.40
2018-02-22T01:19:00.132Z,26.40
2018-02-22T01:20:00.120Z,27.00
2018-02-22T01:21:00.096Z,27.00
2018-02-22T01:22:00.080Z,26.80
2018-02-22T01:23:00.067Z,27.10
2018-02-22T01:24:00.046Z,27.20
2018-02-22T01:25:00.028Z,27.80
2018-02-22T01:26:00.009Z,26.30
2018-02-22T01:26:59.989Z,27.00
2018-02-22T01:27:59.972Z,26.20
2018-02-22T01:28:59.959Z,25.60
2018-02-22T01:29:59.936Z,26.80
2018-02-22T01:30:59.916Z,27.40
2018-02-22T01:31:59.901Z,25.90
2018-02-22T01:32:59.882Z,27.60
2018-02-22T01:33:59.863Z,27.40
2018-02-22T01:34:59.844Z,26.40
2018-02-22T01:35:59.828Z,25.90
2018-02-22T01:36:59.809Z,26.40
2018-02-22T01:37:59.797Z,28.50
2018-02-22T01:38:59.780Z,26.20
2018-02-22T01:39:59.754Z,27.20
2018-02-22T01:40:59.736Z,27.50
2018-02-22T01:41:59.731Z,27.80
2018-02-22T01:42:59.701Z,27.20
2018-02-22T01:43:59.683Z,26.50
2018-02-22T01:44:59.664Z,26.90
2018-02-22T01:45:59.647Z,27.10
2018-02-22T01:46:59.633Z,27.00
2018-02-22T01:47:59.610Z,26.90
2018-02-22T01:48:59.591Z,28.00
2018-02-22T01:49:59.573Z,25.80
2018-02-22T01:50:59.554Z,28.40
2018-02-22T01:51:59.538Z,27.20
2018-02-22T01:52:59.523Z,27.80
2018-02-22T01:53:59.503Z,27.80
2018-02-22T01:54:59.481Z,28.10
2018-02-22T01:55:59.469Z,27.70
2018-02-22T01:56:59.445Z,27.40
2018-02-22T01:57:59.428Z,28.40
2018-02-22T01:58:59.408Z,25.50
2018-02-22T01:59:59.390Z,27.40
2018-02-22T02:00:59.378Z,27.80
2018-02-22T02:01:59.356Z,27.40
2018-02-22T02:02:59.337Z,27.30
2018-02-22T02:03:59.318Z,28.10
2018-02-22T02:04:59.298Z,27.20
2018-02-22T02:05:59.281Z,27.90
2018-02-22T02:06:59.264Z,27.30
2018-02-22T02:07:59.241Z,27.20
2018-02-22T02:08:59.226Z,28.90
2018-02-22T02:09:59.206Z,27.50
2018-02-22T02:10:59.189Z,28.50
2018-02-22T02:11:59.168Z,29.00
2018-02-22T02:12:59.151Z,29.20
2018-02-22T02:13:59.134Z,28.20
2018-02-22T02:14:59.114Z,29.30
2018-02-22T02:15:59.096Z,27.10
2018-02-22T02:16:59.077Z,28.70
2018-02-22T02:17:59.060Z,30.00
2018-02-22T02:18:59.047Z,26.00
2018-02-22T02:19:59.028Z,27.60
2018-02-22T02:20:59.005Z,27.30
2018-02-22T02:21:58.988Z,27.10
2018-02-22T02:22:58.967Z,27.30
2018-02-22T02:23:58.950Z,28.00
2018-02-22T02:24:58.937Z,28.00
2018-02-22T02:25:58.912Z,28.20
2018-02-22T02:26:58.899Z,27.00
2018-02-22T02:27:58.874Z,28.80
2018-02-22T02:28:58.857Z,28.50
2018-02-22T02:29:58.837Z,27.90
2018-02-22T02:30:58.823Z,27.50
2018-02-22T02:31:58.810Z,29.60
2018-02-22T02:32:58.786Z,27.80
2018-02-22T02:33:58.765Z,27.40
2018-02-22T02:34:58.748Z,28.60
2018-02-22T02:35:58.735Z,29.90
2018-02-22T02:36:58.719Z,28.80
2018-02-22T02:37:58.689Z,29.00
2018-02-22T02:38:58.677Z,28.30
2018-02-22T02:39:58.649Z,29.00
2018-02-22T02:40:58.644Z,28.50
2018-02-22T02:41:58.622Z,27.70
2018-02-22T02:42:58.599Z,29.00
2018-02-22T02:43:58.577Z,29.30
2018-02-22T02:44:58.560Z,28.20
2018-02-22T02:45:58.541Z,28.20
2018-02-22T02:46:58.518Z,28.10
2018-02-22T02:47:58.500Z,28.40
2018-02-22T02:48:58.482Z,27.80
2018-02-22T02:49:58.464Z,28.60
2018-02-22T02:50:58.446Z,28.70
2018-02-22T02:51:58.431Z,28.80
2018-02-22T02:52:58.414Z,29.30
2018-02-22T02:53:58.395Z,28.20
2018-02-22T02:54:58.371Z,26.90
2018-02-22T02:55:58.357Z,29.40
2018-02-22T02:56:58.335Z,28.50
2018-02-22T02:57:58.314Z,28.40
2018-02-22T02:58:58.294Z,30.10
2018-02-22T02:59:58.277Z,29.80
2018-02-22T03:00:58.257Z,27.80
2018-02-22T03:01:58.240Z,28.60
2018-02-22T03:02:58.232Z,29.00
2018-02-22T03:03:58.202Z,28.30
2018-02-22T03:04:58.189Z,29.10
2018-02-22T03:05:58.167Z,28.20
2018-02-22T03:06:58.147Z,26.60
2018-02-22T03:07:58.127Z,28.00
2018-02-22T03:08:58.112Z,27.70
2018-02-22T03:09:58.091Z,28.20
2018-02-22T03:10:58.070Z,27.90
2018-02-22T03:11:58.051Z,29.10
2018-02-22T03:12:58.033Z,28.60
2018-02-22T03:13:58.021Z,28.30
2018-02-22T03:14:58.000Z,27.50
2018-02-22T03:15:57.978Z,26.70
2018-02-22T03:16:57.958Z,28.80
2018-02-22T03:17:57.941Z,27.60
2018-02-22T03:18:57.921Z,28.60
2018-02-22T03:19:57.901Z,28.30
2018-02-22T03:20:57.890Z,29.40
2018-02-22T03:21:57.865Z,26.80
2018-02-22T03:22:57.854Z,27.90
2018-02-22T03:23:57.830Z,28.80
2018-02-22T03:24:57.815Z,28.60
2018-02-22T03:25:57.790Z,27.90
2018-02-22T03:26:57.773Z,29.60
2018-02-22T03:27:57.763Z,28.10
2018-02-22T03:28:57.734Z,29.70
2018-02-22T03:29:57.719Z,29.10
2018-02-22T03:30:57.696Z,29.00
2018-02-22T03:31:57.695Z,30.20
2018-02-22T03:32:57.665Z,28.30
2018-02-22T03:33:57.640Z,29.10
2018-02-22T03:34:57.628Z,28.00
2018-02-22T03:35:57.604Z,27.30
2018-02-22T03:36:57.589Z,27.10
2018-02-22T03:37:57.575Z,27.50
2018-02-22T03:38:57.548Z,28.90
2018-02-22T03:39:57.529Z,29.30
2018-02-22T03:40:57.510Z,26.80
2018-02-22T03:41:57.497Z,28.90
2018-02-22T03:42:57.470Z,30.00
2018-02-22T03:43:57.454Z,28.00
2018-02-22T03:44:57.441Z,27.40
2018-02-22T03:45:57.420Z,29.20
2018-02-22T03:46:57.401Z,28.70
2018-02-22T03:47:57.386Z,28.00
2018-02-22T03:48:57.364Z,29.00
2018-02-22T03:49:57.341Z,27.50
2018-02-22T03:50:57.323Z,28.60
2018-02-22T03:51:57.307Z,27.80
2018-02-22T03:52:57.291Z,27.40
2018-02-22T03:53:57.283Z,27.60
2018-02-22T03:54:57.247Z,28.70
2018-02-22T03:55:57.228Z,28.00
2018-02-22T03:56:57.210Z,29.10
2018-02-22T03:57:57.193Z,28.60
2018-02-22T03:58:57.171Z,27.80
2018-02-22T03:59:57.160Z,28.30
2018-02-22T04:00:57.137Z,28.50
2018-02-22T04:01:57.116Z,26.70
2018-02-22T04:02:57.098Z,26.90
2018-02-22T04:03:57.087Z,29.00
2018-02-22T04:04:57.066Z,28.60
2018-02-22T04:05:57.044Z,28.30
2018-02-22T04:06:57.029Z,29.10
2018-02-22T04:07:57.006Z,28.50
2018-02-22T04:08:56.985Z,27.90
2018-02-22T04:09:56.968Z,28.40
2018-02-22T04:10:56.949Z,27.50
2018-02-22T04:11:56.930Z,27.20
2018-02-22T04:12:56.921Z,27.60
2018-02-22T04:13:56.899Z,27.80
2018-02-22T04:14:56.872Z,27.70
2018-02-22T04:15:56.856Z,27.40
2018-02-22T04:16:56.836Z,27.10
2018-02-22T04:17:56.821Z,27.50
2018-02-22T04:18:56.806Z,27.80
2018-02-22T04:19:56.782Z,27.70
2018-02-22T04:20:56.763Z,26.80
2018-02-22T04:21:56.750Z,26.10
2018-02-22T04:22:56.727Z,25.40
2018-02-22T04:23:56.711Z,27.10
2018-02-22T04:24:56.689Z,27.50
2018-02-22T04:25:56.670Z,24.90
2018-02-22T04:26:56.648Z,25.80
2018-02-22T04:27:56.631Z,26.20
2018-02-22T04:28:56.613Z,25.90
2018-02-22T04:29:56.594Z,27.60
2018-02-22T04:30:56.582Z,26.50
2018-02-22T04:31:56.563Z,27.20
2018-02-22T04:32:56.539Z,25.30
2018-02-22T04:33:56.520Z,26.50
2018-02-22T04:34:56.503Z,26.10
2018-02-22T04:35:56.488Z,24.90
2018-02-22T04:36:56.472Z,25.40
2018-02-22T04:37:56.446Z,24.70
2018-02-22T04:38:56.433Z,25.60
2018-02-22T04:39:56.409Z,25.50
2018-02-22T04:40:56.399Z,26.10
2018-02-22T04:41:56.375Z,25.10
2018-02-22T04:42:56.361Z,24.90
2018-02-22T04:43:56.333Z,26.30
2018-02-22T04:44:56.317Z,25.20
2018-02-22T04:45:56.300Z,24.40
2018-02-22T04:46:56.278Z,24.50
2018-02-22T04:47:56.257Z,24.60
2018-02-22T04:48:56.241Z,26.20
2018-02-22T04:49:56.227Z,25.50
2018-02-22T04:50:56.203Z,25.00
2018-02-22T04:51:56.192Z,26.30
2018-02-22T04:52:56.166Z,25.00
2018-02-22T04:53:56.148Z,24.00
2018-02-22T04:54:56.134Z,25.40
2018-02-22T04:55:56.118Z,25.80
2018-02-22T04:56:56.098Z,26.00
2018-02-22T04:57:56.073Z,25.80
2018-02-22T04:58:56.057Z,25.70
2018-02-22T04:59:56.039Z,23.40
2018-02-22T05:00:56.016Z,23.90
2018-02-22T05:01:55.997Z,25.10
2018-02-22T05:02:55.985Z,24.40
2018-02-22T05:03:55.959Z,25.90
2018-02-22T05:04:55.942Z,26.00
2018-02-22T05:05:55.931Z,24.90
2018-02-22T05:06:55.905Z,25.70
2018-02-22T05:07:55.885Z,23.00
2018-02-22T05:08:55.876Z,25.00
2018-02-22T05:09:55.851Z,25.70
2018-02-22T05:10:55.829Z,24.60
2018-02-22T05:11:55.810Z,23.90
2018-02-22T05:12:55.798Z,24.70
2018-02-22T05:13:55.774Z,24.50
2018-02-22T05:14:55.754Z,25.10
2018-02-22T05:15:55.740Z,23.30
2018-02-22T05:16:55.722Z,25.20
2018-02-22T05:17:55.706Z,24.30
2018-02-22T05:18:55.680Z,24.80
2018-02-22T05:19:55.676Z,25.40
2018-02-22T05:20:55.652Z,23.00
2018-02-22T05:21:55.625Z,25.30
2018-02-22T05:22:55.605Z,24.10
2018-02-22T05:23:55.592Z,24.50
2018-02-22T05:24:55.569Z,25.00
2018-02-22T05:25:55.552Z,23.60
2018-02-22T05:26:55.534Z,24.20
2018-02-22T05:27:55.516Z,23.50
2018-02-22T05:28:55.499Z,24.20
2018-02-22T05:29:55.479Z,24.20
2018-02-22T05:30:55.459Z,24.00
2018-02-22T05:31:55.434Z,24.60
2018-02-22T05:32:55.421Z,24.60
2018-02-22T05:33:55.398Z,24.80
2018-02-22T05:34:55.384Z,23.60
2018-02-22T05:35:55.366Z,24.90
2018-02-22T05:36:55.391Z,24.60
2018-02-22T05:37:55.323Z,26.00
2018-02-22T05:38:55.306Z,25.20
2018-02-22T05:39:55.284Z,25.10
2018-02-22T05:40:55.266Z,23.30
2018-02-22T05:41:55.248Z,25.10
2018-02-22T05:42:55.227Z,24.30
2018-02-22T05:43:55.215Z,24.20
2018-02-22T05:44:55.190Z,25.20
2018-02-22T05:45:55.183Z,25.10
2018-02-22T05:46:55.154Z,24.70
2018-02-22T05:47:55.145Z,25.60
2018-02-22T05:48:55.122Z,24.40
2018-02-22T05:49:55.097Z,24.70
2018-02-22T05:50:55.078Z,25.30
2018-02-22T05:51:55.058Z,23.70
2018-02-22T05:52:55.044Z,24.40
2018-02-22T05:53:55.027Z,24.10
2018-02-22T05:54:55.002Z,23.70
2018-02-22T05:55:54.982Z,25.20
2018-02-22T05:56:54.964Z,23.30
2018-02-22T05:57:54.945Z,23.70
2018-02-22T05:58:54.926Z,24.00
2018-02-22T05:59:54.905Z,23.30
2018-02-22T06:00:54.888Z,24.10
2018-02-22T06:01:54.874Z,24.60
2018-02-22T06:02:54.852Z,24.80
2018-02-22T06:03:54.835Z,24.20
2018-02-22T06:04:54.812Z,24.10
2018-02-22T06:05:54.796Z,24.40
2018-02-22T06:06:54.774Z,24.00
2018-02-22T06:07:54.752Z,25.00
2018-02-22T06:08:54.740Z,24.20
2018-02-22T06:09:54.718Z,24.60
2018-02-22T06:10:54.695Z,23.60
2018-02-22T06:11:54.676Z,23.50
2018-02-22T06:12:54.658Z,23.30
2018-02-22T06:13:54.638Z,24.70
2018-02-22T06:14:54.633Z,24.40
2018-02-22T06:15:54.604Z,25.10
2018-02-22T06:16:54.581Z,23.00
2018-02-22T06:17:54.567Z,22.90
2018-02-22T06:18:54.546Z,23.80
2018-02-22T06:19:54.528Z,23.30
2018-02-22T06:20:54.505Z,25.30
2018-02-22T06:21:54.486Z,25.30
2018-02-22T06:22:54.470Z,23.90
2018-02-22T06:23:54.452Z,23.00
2018-02-22T06:24:54.424Z,23.50
2018-02-22T06:25:54.409Z,23.70
2018-02-22T06:26:54.392Z,23.40
2018-02-22T06:27:54.366Z,24.90
2018-02-22T06:28:54.349Z,24.20
2018-02-22T06:29:54.331Z,23.30
2018-02-22T06:30:54.308Z,23.80
2018-02-22T06:31:54.295Z,25.40
2018-02-22T06:32:54.321Z,25.10
2018-02-22T06:33:54.255Z,25.70
2018-02-22T06:34:54.230Z,25.30
2018-02-22T06:35:54.216Z,23.60
2018-02-22T06:36:54.193Z,25.20
2018-02-22T06:37:54.174Z,23.50
2018-02-22T06:38:54.152Z,24.30
2018-02-22T06:39:54.133Z,24.00
2018-02-22T06:40:54.124Z,23.90
2018-02-22T06:41:54.094Z,24.80
2018-02-22T06:42:54.080Z,25.10
2018-02-22T06:43:54.063Z,25.00
2018-02-22T06:44:54.047Z,24.80
2018-02-22T06:45:54.024Z,24.80
2018-02-22T06:46:53.999Z,25.70
2018-02-22T06:47:53.983Z,24.80
2018-02-22T06:48:53.963Z,24.20
2018-02-22T06:49:53.943Z,25.30
2018-02-22T06:50:53.928Z,25.10
2018-02-22T06:51:53.903Z,24.90
2018-02-22T06:52:53.885Z,24.40
2018-02-22T06:53:53.865Z,25.60
2018-02-22T06:54:53.846Z,25.00
2018-02-22T06:55:53.832Z,24.40
2018-02-22T06:56:53.807Z,25.50
2018-02-22T06:57:53.816Z,25.20
2018-02-22T06:58:53.768Z,26.40
2018-02-22T06:59:53.751Z,24.00
2018-02-22T07:00:53.729Z,25.60
2018-02-22T07:01:53.712Z,24.60
2018-02-22T07:02:53.694Z,24.80
2018-02-22T07:03:53.677Z,25.90
2018-02-22T07:04:53.657Z,26.20
2018-02-22T07:05:53.634Z,24.90
2018-02-22T07:06:53.618Z,23.70
2018-02-22T07:07:53.594Z,25.00
2018-02-22T07:08:53.580Z,25.00
2018-02-22T07:09:53.557Z,26.10
2018-02-22T07:10:53.543Z,25.50
2018-02-22T07:11:53.524Z,25.20
2018-02-22T07:12:53.498Z,25.70
2018-02-22T07:13:53.529Z,24.80
2018-02-22T07:14:53.510Z,24.50
2018-02-22T07:15:53.447Z,25.60
2018-02-22T07:16:53.421Z,23.20
2018-02-22T07:17:53.404Z,25.30
2018-02-22T07:18:53.388Z,25.40
2018-02-22T07:19:53.364Z,27.20
2018-02-22T07:20:53.345Z,27.00
2018-02-22T07:21:53.326Z,26.10
2018-02-22T07:22:53.307Z,24.80
2018-02-22T07:23:53.297Z,24.20
2018-02-22T07:24:53.273Z,24.30
2018-02-22T07:25:53.250Z,25.10
2018-02-22T07:26:53.232Z,24.90
2018-02-22T07:27:53.215Z,25.30
2018-02-22T07:28:53.191Z,23.90
2018-02-22T07:29:53.176Z,26.20
2018-02-22T07:30:53.150Z,25.90
2018-02-22T07:31:53.130Z,24.40
2018-02-22T07:32:53.120Z,24.90
2018-02-22T07:33:53.094Z,25.80
2018-02-22T07:34:53.075Z,25.20
2018-02-22T07:35:53.053Z,24.50
2018-02-22T07:36:53.042Z,26.00
2018-02-22T07:37:53.022Z,25.40
2018-02-22T07:38:52.996Z,26.30
2018-02-22T07:39:52.976Z,24.80
2018-02-22T07:40:52.959Z,25.80
2018-02-22T07:41:52.937Z,26.90
2018-02-22T07:42:52.925Z,26.40
2018-02-22T07:43:52.898Z,25.70
2018-02-22T07:44:52.879Z,25.50
2018-02-22T07:45:52.866Z,26.20
2018-02-22T07:46:52.841Z,27.70
2018-02-22T07:47:52.821Z,27.50
2018-02-22T07:48:52.811Z,27.80
2018-02-22T07:49:52.786Z,26.50
2018-02-22T07:50:52.764Z,26.30
2018-02-22T07:51:52.744Z,26.90
2018-02-22T07:52:52.731Z,25.80
2018-02-22T07:53:52.709Z,27.00
2018-02-22T07:54:52.692Z,26.50
2018-02-22T07:55:52.669Z,26.80
2018-02-22T07:56:52.655Z,25.50
2018-02-22T07:57:52.634Z,24.40
2018-02-22T07:58:52.611Z,24.80
2018-02-22T07:59:52.592Z,26.50
2018-02-22T08:00:52.576Z,26.90
2018-02-22T08:01:52.553Z,25.60
2018-02-22T08:02:52.532Z,26.00
2018-02-22T08:03:52.520Z,26.60
2018-02-22T08:04:52.495Z,25.90
2018-02-22T08:05:52.476Z,25.80
2018-02-22T08:06:52.455Z,26.40
2018-02-22T08:07:52.443Z,26.30
2018-02-22T08:08:52.419Z,24.60
2018-02-22T08:09:52.405Z,25.40
2018-02-22T08:10:52.381Z,25.40
2018-02-22T08:11:52.363Z,28.00
2018-02-22T08:12:52.345Z,25.60
2018-02-22T08:13:52.326Z,25.60
2018-02-22T08:14:52.302Z,24.00
2018-02-22T08:15:52.283Z,25.10
2018-02-22T08:16:52.270Z,25.20
2018-02-22T08:17:52.245Z,25.70
2018-02-22T08:18:52.226Z,26.30
2018-02-22T08:19:52.211Z,25.60
2018-02-22T08:20:52.198Z,25.60
2018-02-22T08:21:52.172Z,24.80
2018-02-22T08:22:52.147Z,26.10
2018-02-22T08:23:52.128Z,25.50
2018-02-22T08:24:52.110Z,26.30
2018-02-22T08:25:52.095Z,25.60
2018-02-22T08:26:52.069Z,25.70
2018-02-22T08:27:52.064Z,25.80
2018-02-22T08:28:52.038Z,26.60
2018-02-22T08:29:52.012Z,26.30
2018-02-22T08:30:51.999Z,26.40
2018-02-22T08:31:51.974Z,27.70
2018-02-22T08:32:51.957Z,26.40
2018-02-22T08:33:51.939Z,26.60
2018-02-22T08:34:51.922Z,26.00
2018-02-22T08:35:51.897Z,27.10
2018-02-22T08:36:51.884Z,26.90
2018-02-22T08:37:51.860Z,26.20
2018-02-22T08:38:51.838Z,27.10
2018-02-22T08:39:51.820Z,27.60
2018-02-22T08:40:51.800Z,27.30
2018-02-22T08:41:51.780Z,26.40
2018-02-22T08:42:51.764Z,27.30
2018-02-22T08:43:51.742Z,25.40
2018-02-22T08:44:51.722Z,26.30
2018-02-22T08:45:51.702Z,27.10
2018-02-22T08:46:51.692Z,27.00
2018-02-22T08:47:51.665Z,27.40
2018-02-22T08:48:51.645Z,28.40
2018-02-22T08:49:51.626Z,27.30
2018-02-22T08:50:51.606Z,25.70
2018-02-22T08:51:51.587Z,25.90
2018-02-22T08:52:51.576Z,27.30
2018-02-22T08:53:51.559Z,27.90
2018-02-22T08:54:51.530Z,26.20
2018-02-22T08:55:51.519Z,27.30
2018-02-22T08:56:51.498Z,27.60
2018-02-22T08:57:51.478Z,27.70
2018-02-22T08:58:51.456Z,28.30
2018-02-22T08:59:51.434Z,27.90
2018-02-22T09:00:51.415Z,26.80
2018-02-22T09:01:51.395Z,27.50
2018-02-22T09:02:51.377Z,29.80
2018-02-22T09:03:51.359Z,27.70
2018-02-22T09:04:51.337Z,28.40
2018-02-22T09:05:51.318Z,27.60
2018-02-22T09:06:51.299Z,30.20
2018-02-22T09:07:51.279Z,29.40
2018-02-22T09:08:51.260Z,28.80
2018-02-22T09:09:51.248Z,29.50
2018-02-22T09:10:51.222Z,29.10
2018-02-22T09:11:51.204Z,28.20
2018-02-22T09:12:51.184Z,27.40
2018-02-22T09:13:51.165Z,27.80
2018-02-22T09:14:51.150Z,28.90
2018-02-22T09:15:51.133Z,28.10
2018-02-22T09:16:51.113Z,26.70
2018-02-22T09:17:51.089Z,28.60
2018-02-22T09:18:51.072Z,27.00
2018-02-22T09:19:51.049Z,29.60
2018-02-22T09:20:51.036Z,29.20
2018-02-22T09:21:51.009Z,28.60
2018-02-22T09:22:50.989Z,29.60
2018-02-22T09:23:50.969Z,28.80
2018-02-22T09:24:50.952Z,28.10
2018-02-22T09:25:50.931Z,28.60
2018-02-22T09:26:50.911Z,28.10
2018-02-22T09:27:50.893Z,29.10
2018-02-22T09:28:50.878Z,27.20
2018-02-22T09:29:50.855Z,27.40
2018-02-22T09:30:50.841Z,27.90
2018-02-22T09:31:50.814Z,28.10
2018-02-22T09:32:50.797Z,28.00
2018-02-22T09:33:50.782Z,28.00
2018-02-22T09:34:50.764Z,28.20
2018-02-22T09:35:50.737Z,28.80
2018-02-22T09:36:50.718Z,28.60
2018-02-22T09:37:50.701Z,27.70
2018-02-22T09:38:50.679Z,28.60
2018-02-22T09:39:50.659Z,29.50
2018-02-22T09:40:50.645Z,27.10
2018-02-22T09:41:50.625Z,27.70
2018-02-22T09:42:50.601Z,28.20
2018-02-22T09:43:50.582Z,28.40
2018-02-22T09:44:50.568Z,29.00
2018-02-22T09:45:50.550Z,28.80
2018-02-22T09:46:50.528Z,30.60
2018-02-22T09:47:50.505Z,28.50
2018-02-22T09:48:50.492Z,28.00
2018-02-22T09:49:50.466Z,28.50
2018-02-22T09:50:50.445Z,27.90
2018-02-22T09:51:50.427Z,30.30
2018-02-22T09:52:50.407Z,29.30
2018-02-22T09:53:50.387Z,28.00
2018-02-22T09:54:50.373Z,29.50
2018-02-22T09:55:50.354Z,27.90
2018-02-22T09:56:50.331Z,29.50
2018-02-22T09:57:50.311Z,27.80
2018-02-22T09:58:50.289Z,28.80
2018-02-22T09:59:50.273Z,27.50
2018-02-22T10:00:50.257Z,28.80
2018-02-22T10:01:50.238Z,28.30
2018-02-22T10:02:50.210Z,27.90
2018-02-22T10:03:50.193Z,28.30
2018-02-22T10:04:50.174Z,28.50
2018-02-22T10:05:50.154Z,29.30
2018-02-22T10:06:50.140Z,29.00
2018-02-22T10:07:50.116Z,28.20
2018-02-22T10:08:50.096Z,28.00
2018-02-22T10:09:50.086Z,29.20
2018-02-22T10:10:50.058Z,28.50
2018-02-22T10:11:50.037Z,30.10
2018-02-22T10:12:50.020Z,29.60
2018-02-22T10:13:49.999Z,29.60
2018-02-22T10:14:49.980Z,28.10
2018-02-22T10:15:49.960Z,28.20
2018-02-22T10:16:49.946Z,29.70
2018-02-22T10:17:49.922Z,28.70
2018-02-22T10:18:49.902Z,28.60
2018-02-22T10:19:49.890Z,28.80
2018-02-22T10:20:49.864Z,29.00
2018-02-22T10:21:49.848Z,28.10
2018-02-22T10:22:49.827Z,29.00
2018-02-22T10:23:49.812Z,28.90
2018-02-22T10:24:49.785Z,28.80
2018-02-22T10:25:49.765Z,28.20
2018-02-22T10:26:49.749Z,30.00
2018-02-22T10:27:49.734Z,28.50
2018-02-22T10:28:49.718Z,29.50
2018-02-22T10:29:49.698Z,29.40
2018-02-22T10:30:49.672Z,29.30
2018-02-22T10:31:49.659Z,27.70
2018-02-22T10:32:49.635Z,28.50
2018-02-22T10:33:49.615Z,29.70
2018-02-22T10:34:49.602Z,28.30
2018-02-22T10:35:49.576Z,28.10
2018-02-22T10:36:49.559Z,30.40
2018-02-22T10:37:49.540Z,28.30
2018-02-22T10:38:49.524Z,29.20
2018-02-22T10:39:49.499Z,29.90
2018-02-22T10:40:49.487Z,29.80
2018-02-22T10:41:49.463Z,29.00
2018-02-22T10:42:49.446Z,29.20
2018-02-22T10:43:49.424Z,29.10
2018-02-22T10:44:49.427Z,30.50
2018-02-22T10:45:49.387Z,28.70
2018-02-22T10:46:49.367Z,29.80
2018-02-22T10:47:49.352Z,30.10
2018-02-22T10:48:49.328Z,27.30
2018-02-22T10:49:49.311Z,29.50
2018-02-22T10:50:49.290Z,28.70
2018-02-22T10:51:49.274Z,29.50
2018-02-22T10:52:49.260Z,29.30
2018-02-22T10:53:49.240Z,28.80
2018-02-22T10:54:49.245Z,27.70
2018-02-22T10:55:49.197Z,28.90
2018-02-22T10:56:49.182Z,29.40
2018-02-22T10:57:49.166Z,28.70
2018-02-22T10:58:49.140Z,28.50
2018-02-22T10:59:49.122Z,27.30
2018-02-22T11:00:49.102Z,28.10
2018-02-22T11:01:49.085Z,27.30
2018-02-22T11:02:49.065Z,28.40
2018-02-22T11:03:49.044Z,29.10
2018-02-22T11:04:49.028Z,27.60
2018-02-22T11:05:49.007Z,28.50
2018-02-22T11:06:48.987Z,28.60
2018-02-22T11:07:48.976Z,26.40
2018-02-22T11:08:48.956Z,27.50
2018-02-22T11:09:48.932Z,28.70
2018-02-22T11:10:48.918Z,27.40
2018-02-22T11:11:48.898Z,27.30
2018-02-22T11:12:48.872Z,27.60
2018-02-22T11:13:48.863Z,27.90
2018-02-22T11:14:48.836Z,27.00
2018-02-22T11:15:48.816Z,27.20
2018-02-22T11:16:48.801Z,28.50
2018-02-22T11:17:48.779Z,29.20
2018-02-22T11:18:48.765Z,28.50
2018-02-22T11:19:48.754Z,26.90
2018-02-22T11:20:48.722Z,26.80
2018-02-22T11:21:48.705Z,27.80
2018-02-22T11:22:48.691Z,26.70
2018-02-22T11:23:48.668Z,27.70
2018-02-22T11:24:48.647Z,29.10
2018-02-22T11:25:48.628Z,27.00
2018-02-22T11:26:48.611Z,26.20
2018-02-22T11:27:48.595Z,26.50
2018-02-22T11:28:48.572Z,26.30
2018-02-22T11:29:48.551Z,27.90
2018-02-22T11:30:48.532Z,26.00
2018-02-22T11:31:48.515Z,27.80
2018-02-22T11:32:48.494Z,28.00
2018-02-22T11:33:48.475Z,26.40
2018-02-22T11:34:48.455Z,26.00
2018-02-22T11:35:48.436Z,27.00
2018-02-22T11:36:48.419Z,27.00
2018-02-22T11:37:48.400Z,27.20
2018-02-22T11:38:48.383Z,27.60
2018-02-22T11:39:48.420Z,26.40
2018-02-22T11:40:48.347Z,26.60
2018-02-22T11:41:48.328Z,28.80
2018-02-22T11:42:48.312Z,27.90
2018-02-22T11:43:48.291Z,27.50
2018-02-22T11:44:48.266Z,26.70
2018-02-22T11:45:48.248Z,26.10
2018-02-22T11:46:48.229Z,26.80
2018-02-22T11:47:48.209Z,28.10
2018-02-22T11:48:48.196Z,28.10
2018-02-22T11:49:48.178Z,27.50
2018-02-22T11:50:48.151Z,27.80
2018-02-22T11:51:48.152Z,25.80
2018-02-22T11:52:48.120Z,26.40
2018-02-22T11:53:48.095Z,26.10
2018-02-22T11:54:48.077Z,26.20
2018-02-22T11:55:48.065Z,26.60
2018-02-22T11:56:48.046Z,27.60
2018-02-22T11:57:48.028Z,26.60
2018-02-22T11:58:48.007Z,27.90
2018-02-22T11:59:47.980Z,26.40
2018-02-22T12:00:47.961Z,27.60
2018-02-22T12:01:47.943Z,27.90
2018-02-22T12:02:47.925Z,28.40
2018-02-22T12:03:47.912Z,27.40
2018-02-22T12:04:47.887Z,27.00
2018-02-22T12:05:47.867Z,27.30
2018-02-22T12:06:47.848Z,26.60
2018-02-22T12:07:47.836Z,27.30
2018-02-22T12:08:47.819Z,24.90
2018-02-22T12:09:47.791Z,26.40
2018-02-22T12:10:47.773Z,27.10
2018-02-22T12:11:47.755Z,27.40
2018-02-22T12:12:47.741Z,27.40
2018-02-22T12:13:47.723Z,26.80
2018-02-22T12:14:47.703Z,28.30
2018-02-22T12:15:47.684Z,25.80
2018-02-22T12:16:47.666Z,27.60
2018-02-22T12:17:47.643Z,28.70
2018-02-22T12:18:47.630Z,26.70
2018-02-22T12:19:47.608Z,27.80
2018-02-22T12:20:47.582Z,27.50
2018-02-22T12:21:47.571Z,25.80
2018-02-22T12:22:47.545Z,26.60
2018-02-22T12:23:47.530Z,25.70
2018-02-22T12:24:47.510Z,27.90
2018-02-22T12:25:47.494Z,25.50
2018-02-22T12:26:47.469Z,28.10
2018-02-22T12:27:47.451Z,27.30
2018-02-22T12:28:47.432Z,28.40
2018-02-22T12:29:47.413Z,26.00
2018-02-22T12:30:47.394Z,26.20
2018-02-22T12:31:47.375Z,27.50
2018-02-22T12:32:47.362Z,27.20
2018-02-22T12:33:47.341Z,26.40
2018-02-22T12:34:47.317Z,26.50
2018-02-22T12:35:47.305Z,27.10
2018-02-22T12:36:47.282Z,26.00
2018-02-22T12:37:47.262Z,26.00
2018-02-22T12:38:47.241Z,26.70
2018-02-22T12:39:47.223Z,26.90
2018-02-22T12:40:47.205Z,26.60
2018-02-22T12:41:47.185Z,26.80
2018-02-22T12:42:47.171Z,27.00
2018-02-22T12:43:47.148Z,26.70
2018-02-22T12:44:47.130Z,27.50
2018-02-22T12:45:47.112Z,27.80
2018-02-22T12:46:47.093Z,26.80
2018-02-22T12:47:47.073Z,27.40
2018-02-22T12:48:47.055Z,28.20
2018-02-22T12:49:47.043Z,27.70
2018-02-22T12:50:47.015Z,27.60
2018-02-22T12:51:46.997Z,27.90